Time;durP1;ratioP1;P1;durP2;ratioP2;P2;SDS_P1;SDS_P2;PMS_P1;PMS_P2;Temp;Humidity;BMP_temperature;BMP_pressure;BME280_temperature;BME280_humidity;BME280_pressure;Samples;Min_cycle;Max_cycle;Signal;HPM_P1;HPM_P2
2022/12/11 00:00:18;;;;;;;32.30;17.77;;;5.00;44.90;;;;;;5013880;28;20266;-49
2022/12/11 00:02:44;;;;;;;30.03;18.80;;;5.00;44.80;;;;;;5013866;28;20198;-49
2022/12/11 00:05:10;;;;;;;30.20;18.27;;;5.00;44.80;;;;;;5014024;28;20206;-49
2022/12/11 00:07:36;;;;;;;33.10;18.67;;;5.00;44.90;;;;;;5013990;28;20171;-50
2022/12/11 00:10:02;;;;;;;31.83;17.53;;;5.00;44.80;;;;;;5013747;28;20198;-49
2022/12/11 00:12:30;;;;;;;31.90;17.83;;;5.00;44.80;;;;;;5013534;28;20195;-49
2022/12/11 00:14:55;;;;;;;32.08;18.80;;;5.00;44.90;;;;;;5013833;28;20174;-49
2022/12/11 00:17:21;;;;;;;33.60;18.63;;;5.00;44.90;;;;;;5013692;28;20688;-49
2022/12/11 00:19:47;;;;;;;26.30;15.87;;;5.00;44.80;;;;;;5013712;28;20178;-50
2022/12/11 00:22:12;;;;;;;30.10;17.77;;;5.00;44.70;;;;;;5013366;28;20195;-50
2022/12/11 00:24:38;;;;;;;27.13;18.30;;;5.00;44.80;;;;;;5013574;28;20229;-49
2022/12/11 00:27:04;;;;;;;27.53;17.50;;;5.00;44.70;;;;;;5013554;28;20171;-49
2022/12/11 00:29:29;;;;;;;28.87;17.80;;;5.00;44.70;;;;;;5013446;28;20167;-49
2022/12/11 00:31:55;;;;;;;28.90;18.00;;;5.00;45.40;;;;;;5013244;28;20665;-49
2022/12/11 00:34:21;;;;;;;30.47;17.27;;;5.00;44.60;;;;;;5013436;28;20171;-49
2022/12/11 00:36:47;;;;;;;27.70;17.83;;;5.00;44.70;;;;;;5013378;28;20225;-50
2022/12/11 00:39:13;;;;;;;23.77;15.87;;;4.90;44.70;;;;;;5013316;28;20397;-49
2022/12/11 00:41:38;;;;;;;31.90;16.67;;;4.90;44.60;;;;;;5013452;28;20425;-50
2022/12/11 00:44:04;;;;;;;30.53;17.73;;;4.90;44.70;;;;;;5013065;28;20162;-49
2022/12/11 00:46:30;;;;;;;31.93;18.80;;;4.90;44.70;;;;;;5013190;28;20170;-49
2022/12/11 00:48:56;;;;;;;26.70;15.00;;;4.90;44.70;;;;;;5013179;28;20410;-49
2022/12/11 00:51:21;;;;;;;22.90;16.50;;;4.90;44.60;;;;;;5013070;28;20703;-49
2022/12/11 00:53:47;;;;;;;30.00;18.80;;;4.90;44.70;;;;;;5012798;28;20297;-49
2022/12/11 00:56:16;;;;;;;27.33;16.00;;;4.90;44.50;;;;;;5013119;28;20159;-49
2022/12/11 00:58:42;;;;;;;26.92;15.70;;;4.90;44.50;;;;;;5013177;28;20257;-49
2022/12/11 01:01:18;;;;;;;26.43;15.50;;;4.80;44.40;;;;;;4995182;28;20249;-49
2022/12/11 01:03:44;;;;;;;28.52;15.63;;;4.80;44.50;;;;;;5012760;28;20455;-49
2022/12/11 01:06:17;;;;;;;29.07;15.87;;;4.80;44.60;;;;;;5012902;28;20648;-50
2022/12/11 01:08:44;;;;;;;22.92;16.00;;;4.80;44.60;;;;;;5012865;28;20390;-49
2022/12/11 01:11:12;;;;;;;28.55;17.70;;;4.70;44.60;;;;;;5012601;28;20692;-50
2022/12/11 01:13:39;;;;;;;26.77;16.40;;;4.70;44.50;;;;;;5012537;28;20167;-49
2022/12/11 01:16:11;;;;;;;26.48;14.80;;;4.70;44.60;;;;;;5012748;28;20163;-49
2022/12/11 01:18:37;;;;;;;26.40;13.90;;;4.70;44.70;;;;;;5012694;28;20182;-49
2022/12/11 01:21:11;;;;;;;31.15;15.10;;;4.60;44.40;;;;;;5012581;28;20222;-49
2022/12/11 01:23:37;;;;;;;25.92;15.52;;;4.60;44.50;;;;;;4994740;28;20232;-49
2022/12/11 01:26:12;;;;;;;23.02;15.55;;;4.60;44.70;;;;;;5012479;28;20250;-50
2022/12/11 01:28:38;;;;;;;25.27;15.77;;;4.60;44.60;;;;;;5012546;28;20244;-50
2022/12/11 01:31:12;;;;;;;28.60;16.90;;;4.60;44.60;;;;;;5012330;28;20295;-49
2022/12/11 01:33:39;;;;;;;21.08;13.25;;;4.50;44.60;;;;;;5012285;28;20166;-49
2022/12/11 01:36:17;;;;;;;30.38;17.15;;;4.50;44.70;;;;;;5012430;28;20182;-49
2022/12/11 01:38:44;;;;;;;25.52;15.90;;;4.50;44.50;;;;;;5012459;28;20169;-49
2022/12/11 01:41:11;;;;;;;27.67;15.23;;;4.50;44.60;;;;;;5012292;28;20190;-49
2022/12/11 01:43:55;;;;;;;22.30;14.65;;;4.50;44.50;;;;;;5012158;28;20171;-50
2022/12/11 01:46:20;;;;;;;20.67;13.65;;;4.40;44.60;;;;;;5012304;28;20197;-49
2022/12/11 01:48:46;;;;;;;25.00;15.60;;;4.40;44.80;;;;;;5012213;28;20672;-49
2022/12/11 01:51:12;;;;;;;29.57;13.40;;;4.40;45.10;;;;;;5012079;28;20206;-49
2022/12/11 01:53:42;;;;;;;24.13;15.35;;;4.40;44.50;;;;;;5012034;28;20529;-50
2022/12/11 01:56:09;;;;;;;24.15;13.48;;;4.40;44.50;;;;;;5012231;28;20541;-49
2022/12/11 01:58:40;;;;;;;24.65;16.80;;;4.40;44.60;;;;;;5012160;28;20254;-49
2022/12/11 02:01:07;;;;;;;23.85;14.98;;;4.40;44.70;;;;;;5011986;28;20215;-49
2022/12/11 02:03:33;;;;;;;24.65;15.10;;;4.40;44.60;;;;;;5011901;28;20221;-49
2022/12/11 02:06:02;;;;;;;28.40;15.17;;;4.40;44.60;;;;;;5012068;28;20600;-49
2022/12/11 02:08:28;;;;;;;26.50;17.25;;;4.40;44.50;;;;;;5012157;28;20178;-49
2022/12/11 02:11:19;;;;;;;24.13;15.43;;;4.30;44.40;;;;;;5012015;28;20203;-49
2022/12/11 02:14:04;;;;;;;23.98;14.27;;;4.30;44.40;;;;;;5011910;28;20194;-50
2022/12/11 02:16:44;;;;;;;19.83;12.50;;;4.40;44.50;;;;;;5012056;28;20236;-50
2022/12/11 02:19:28;;;;;;;28.73;16.05;;;4.40;44.60;;;;;;5012121;28;20502;-49
2022/12/11 02:21:55;;;;;;;22.85;14.85;;;4.40;44.50;;;;;;5014632;28;20201;-49
2022/12/11 02:24:53;;;;;;;22.08;13.60;;;4.40;44.60;;;;;;5015731;28;20171;-49
2022/12/11 02:27:35;;;;;;;22.83;14.07;;;4.40;44.50;;;;;;5015837;28;20170;-50
2022/12/11 02:30:04;;;;;;;21.80;14.80;;;4.30;44.50;;;;;;5015707;28;20190;-49
2022/12/11 02:32:39;;;;;;;24.83;14.18;;;4.30;44.50;;;;;;4997794;28;20225;-49
2022/12/11 02:35:39;;;;;;;26.08;14.63;;;4.30;44.50;;;;;;5015727;28;20168;-49
2022/12/11 02:38:10;;;;;;;32.85;14.73;;;4.30;44.30;;;;;;4963083;28;20175;-49
2022/12/11 02:40:39;;;;;;;25.17;14.43;;;4.30;44.30;;;;;;5015612;28;20276;-49
2022/12/11 02:43:09;;;;;;;25.25;13.45;;;4.30;44.40;;;;;;5015224;28;20637;-49
2022/12/11 02:45:37;;;;;;;20.70;14.05;;;4.30;44.40;;;;;;5015471;28;20228;-49
2022/12/11 02:48:05;;;;;;;24.23;13.07;;;4.30;44.50;;;;;;5015471;28;20175;-49
2022/12/11 02:50:35;;;;;;;23.55;15.82;;;4.30;44.50;;;;;;5015271;28;20194;-49
2022/12/11 02:53:03;;;;;;;24.52;16.98;;;4.30;44.50;;;;;;5015116;28;20209;-49
2022/12/11 02:55:31;;;;;;;27.45;14.23;;;4.30;44.40;;;;;;5015231;28;20163;-49
2022/12/11 02:58:18;;;;;;;21.63;14.10;;;4.30;44.30;;;;;;5015260;28;20170;-49
2022/12/11 03:00:45;;;;;;;25.83;13.52;;;4.30;44.20;;;;;;5015070;28;20209;-49
2022/12/11 03:03:11;;;;;;;25.83;15.55;;;4.30;44.20;;;;;;5014968;28;20174;-49
2022/12/11 03:05:38;;;;;;;20.00;12.25;;;4.30;44.10;;;;;;5015144;28;20193;-49
2022/12/11 03:08:04;;;;;;;21.73;14.65;;;4.20;43.90;;;;;;5014974;28;20186;-49
2022/12/11 03:10:30;;;;;;;27.63;14.43;;;4.20;44.00;;;;;;5014855;28;20217;-49
2022/12/11 03:12:57;;;;;;;21.50;12.10;;;4.20;44.00;;;;;;5014786;28;20171;-49
2022/12/11 03:15:36;;;;;;;19.77;13.00;;;4.20;44.10;;;;;;5014971;28;20171;-49
2022/12/11 03:18:17;;;;;;;21.58;13.82;;;4.30;44.20;;;;;;5014868;28;20175;-49
2022/12/11 03:20:49;;;;;;;24.65;15.65;;;4.30;44.20;;;;;;5014696;28;20194;-49
2022/12/11 03:23:38;;;;;;;23.45;13.02;;;4.30;44.30;;;;;;5014544;28;20167;-49
2022/12/11 03:26:15;;;;;;;23.35;13.90;;;4.30;44.10;;;;;;5001559;28;20190;-49
2022/12/11 03:28:57;;;;;;;24.10;14.75;;;4.30;44.00;;;;;;5014722;28;20174;-49
2022/12/11 03:31:35;;;;;;;26.60;14.05;;;4.30;43.80;;;;;;5014427;28;20229;-49
2022/12/11 03:34:08;;;;;;;28.45;14.77;;;4.30;44.10;;;;;;5013659;28;20170;-49
2022/12/11 03:36:37;;;;;;;25.35;14.60;;;4.30;44.00;;;;;;5014620;28;20639;-49
2022/12/11 03:39:15;;;;;;;24.83;13.57;;;4.20;43.80;;;;;;5014506;28;20222;-49
2022/12/11 03:41:45;;;;;;;22.35;12.82;;;4.30;43.80;;;;;;5014289;28;20660;-49
2022/12/11 03:44:12;;;;;;;28.77;15.10;;;4.20;43.80;;;;;;5014183;28;20693;-49
2022/12/11 03:46:39;;;;;;;24.15;15.13;;;4.20;43.90;;;;;;5014373;28;20709;-49
2022/12/11 03:49:12;;;;;;;26.50;14.75;;;4.30;44.10;;;;;;5014523;28;20603;-49
2022/12/11 03:51:39;;;;;;;24.73;14.20;;;4.30;44.10;;;;;;5014110;28;20198;-49
2022/12/11 03:54:05;;;;;;;30.23;14.45;;;4.30;43.90;;;;;;5013995;28;20252;-49
2022/12/11 03:56:34;;;;;;;21.40;13.68;;;4.20;43.30;;;;;;5014166;28;20170;-49
2022/12/11 03:59:00;;;;;;;27.33;15.43;;;4.20;43.40;;;;;;5014141;28;20217;-49
2022/12/11 04:01:26;;;;;;;28.07;14.30;;;4.10;43.70;;;;;;5014217;28;20785;-49
2022/12/11 04:03:52;;;;;;;24.48;14.70;;;4.10;43.90;;;;;;5013743;28;20445;-49
2022/12/11 04:06:18;;;;;;;22.90;15.57;;;4.10;44.00;;;;;;5013950;28;20198;-49
2022/12/11 04:08:43;;;;;;;22.07;12.67;;;4.10;44.10;;;;;;5013933;28;20923;-49
2022/12/11 04:16:38;;;;;;;24.20;13.55;;;4.20;43.70;;;;;;5014040;28;20265;-49
2022/12/11 04:24:33;;;;;;;23.30;13.90;;;4.10;43.60;;;;;;5013993;28;20165;-49
2022/12/11 04:26:58;;;;;;;21.70;13.50;;;4.10;43.60;;;;;;5013655;28;20170;-49
2022/12/11 04:29:24;;;;;;;20.50;13.00;;;4.10;43.80;;;;;;5013508;28;20177;-49
2022/12/11 04:31:50;;;;;;;17.10;11.93;;;4.10;43.90;;;;;;5013239;28;20202;-49
2022/12/11 04:34:16;;;;;;;21.33;12.50;;;4.10;43.80;;;;;;5013346;28;20426;-49
2022/12/11 04:36:42;;;;;;;22.50;14.70;;;4.10;43.60;;;;;;5013477;28;20170;-49
2022/12/11 04:39:08;;;;;;;21.00;13.00;;;4.20;43.70;;;;;;5013374;28;20825;-49
2022/12/11 04:41:34;;;;;;;20.03;12.33;;;4.20;44.40;;;;;;5013348;28;20201;-49
2022/12/11 04:44:00;;;;;;;21.50;12.48;;;4.20;43.40;;;;;;5012793;28;20205;-49
2022/12/11 04:46:26;;;;;;;18.87;12.73;;;4.10;43.10;;;;;;5013311;28;20217;-49
2022/12/11 04:48:52;;;;;;;26.07;13.37;;;4.10;43.30;;;;;;5013166;28;20267;-49
2022/12/11 04:51:19;;;;;;;24.80;12.65;;;4.10;43.50;;;;;;5013054;28;20461;-49
2022/12/11 04:53:45;;;;;;;23.00;12.93;;;4.10;43.50;;;;;;5012912;28;20174;-49
2022/12/11 04:56:13;;;;;;;26.30;13.60;;;4.10;43.50;;;;;;5013048;28;20163;-49
2022/12/11 04:58:41;;;;;;;25.05;15.52;;;4.20;44.30;;;;;;5013012;28;20174;-50
2022/12/11 05:01:19;;;;;;;24.13;13.93;;;4.20;43.70;;;;;;5012830;28;20202;-49
2022/12/11 05:03:45;;;;;;;19.52;12.77;;;4.20;43.70;;;;;;5012763;28;20201;-49
2022/12/11 05:06:11;;;;;;;19.45;14.00;;;4.20;43.60;;;;;;5012908;28;20529;-49
2022/12/11 05:08:40;;;;;;;28.45;13.95;;;4.20;43.70;;;;;;5012827;28;20257;-49
2022/12/11 05:11:09;;;;;;;24.67;14.88;;;4.10;43.50;;;;;;5012751;28;20226;-49
2022/12/11 05:13:35;;;;;;;21.25;13.75;;;4.20;43.60;;;;;;5012768;28;20171;-49
2022/12/11 05:16:04;;;;;;;25.83;13.95;;;4.10;43.50;;;;;;5012803;28;20249;-49
2022/12/11 05:18:29;;;;;;;21.17;12.38;;;4.10;43.40;;;;;;5012643;28;20170;-49
2022/12/11 05:20:57;;;;;;;29.03;14.90;;;4.00;43.40;;;;;;5012605;28;20560;-50
2022/12/11 05:23:23;;;;;;;24.52;14.45;;;4.00;43.60;;;;;;5012415;28;20266;-49
2022/12/11 05:25:57;;;;;;;24.05;14.60;;;4.00;43.80;;;;;;5012591;28;20209;-49
2022/12/11 05:28:25;;;;;;;23.98;13.90;;;4.00;43.90;;;;;;5012636;28;20552;-49
2022/12/11 05:30:56;;;;;;;22.20;13.80;;;3.90;44.30;;;;;;5012446;28;20616;-49
2022/12/11 05:33:21;;;;;;;24.88;13.90;;;3.70;44.60;;;;;;5012194;28;20161;-49
2022/12/11 05:35:48;;;;;;;25.00;14.27;;;3.70;45.00;;;;;;5012432;28;20232;-49
2022/12/11 05:38:14;;;;;;;20.40;13.55;;;3.70;44.90;;;;;;5012398;28;20162;-49
2022/12/11 05:40:39;;;;;;;22.37;11.80;;;3.80;44.90;;;;;;5012345;28;20289;-49
2022/12/11 05:43:05;;;;;;;21.50;13.10;;;3.80;44.70;;;;;;5012166;28;20428;-49
2022/12/11 05:45:31;;;;;;;18.97;13.63;;;3.80;44.50;;;;;;5012358;28;20174;-49
2022/12/11 05:47:56;;;;;;;22.00;11.33;;;3.70;44.60;;;;;;5012277;28;20177;-49
2022/12/11 05:50:22;;;;;;;19.37;12.13;;;3.70;44.60;;;;;;5012222;28;20668;-49
2022/12/11 05:52:48;;;;;;;20.80;12.23;;;3.70;44.70;;;;;;5011985;28;20405;-49
2022/12/11 05:55:14;;;;;;;22.77;12.57;;;3.80;44.70;;;;;;5011704;28;20637;-49
2022/12/11 05:57:40;;;;;;;16.00;10.60;;;3.80;44.60;;;;;;5012243;28;20166;-49
2022/12/11 06:00:06;;;;;;;17.97;10.27;;;3.80;44.40;;;;;;5012186;28;20189;-49
2022/12/11 06:02:34;;;;;;;22.40;10.25;;;3.80;44.10;;;;;;5011933;28;20225;-49
2022/12/11 06:05:00;;;;;;;13.93;10.25;;;3.70;44.30;;;;;;5012118;28;20198;-49
2022/12/11 06:07:26;;;;;;;16.10;11.37;;;3.80;44.50;;;;;;5012134;28;20294;-49
2022/12/11 06:09:51;;;;;;;16.80;9.17;;;3.80;44.30;;;;;;5012031;28;20534;-49
2022/12/11 06:12:17;;;;;;;16.53;10.57;;;3.80;44.40;;;;;;5011785;28;20192;-49
2022/12/11 06:14:43;;;;;;;17.40;10.47;;;3.80;44.10;;;;;;5012137;28;20165;-49
2022/12/11 06:17:08;;;;;;;16.23;10.37;;;3.70;44.30;;;;;;5011936;28;20492;-49
2022/12/11 06:19:34;;;;;;;17.57;9.67;;;3.70;44.30;;;;;;5012037;28;20180;-49
2022/12/11 06:22:00;;;;;;;19.00;9.70;;;3.60;44.00;;;;;;5011682;28;20195;-49
2022/12/11 06:24:26;;;;;;;19.20;9.80;;;3.50;44.50;;;;;;5011974;28;20177;-49
2022/12/11 06:26:51;;;;;;;15.87;9.73;;;3.40;44.40;;;;;;5011963;28;20201;-49
2022/12/11 06:29:17;;;;;;;17.20;9.10;;;3.30;44.60;;;;;;5011847;28;20178;-49
2022/12/11 06:31:43;;;;;;;18.77;9.20;;;3.30;44.70;;;;;;5011768;28;20280;-49
2022/12/11 06:34:12;;;;;;;17.50;10.60;;;3.20;44.70;;;;;;5011682;28;20262;-49
2022/12/11 06:36:38;;;;;;;16.85;10.20;;;3.20;44.80;;;;;;5011844;28;20177;-49
2022/12/11 06:39:04;;;;;;;18.38;10.48;;;3.20;44.80;;;;;;5011886;28;20174;-49
2022/12/11 06:41:30;;;;;;;15.00;10.40;;;3.20;45.00;;;;;;5012024;28;20698;-49
2022/12/11 06:43:55;;;;;;;16.00;10.90;;;3.20;45.10;;;;;;5011569;28;20178;-49
2022/12/11 06:46:21;;;;;;;14.57;9.43;;;3.20;45.00;;;;;;5011737;28;20216;-49
2022/12/11 06:48:49;;;;;;;15.87;9.57;;;3.20;44.90;;;;;;5011683;28;20201;-49
2022/12/11 06:51:18;;;;;;;14.05;9.38;;;3.20;44.90;;;;;;5011600;28;20263;-49
2022/12/11 06:53:44;;;;;;;14.95;9.30;;;3.10;45.00;;;;;;5011510;28;20641;-49
2022/12/11 06:56:12;;;;;;;15.45;10.00;;;3.10;45.00;;;;;;5011673;28;20181;-49
2022/12/11 06:58:39;;;;;;;13.98;9.18;;;3.10;45.10;;;;;;5011691;28;20179;-49
2022/12/11 07:01:15;;;;;;;14.65;9.85;;;3.10;44.90;;;;;;5011386;28;20360;-49
2022/12/11 07:03:41;;;;;;;17.50;10.63;;;3.10;44.90;;;;;;5011427;28;20201;-49
2022/12/11 07:06:06;;;;;;;15.23;9.57;;;3.10;44.90;;;;;;5011640;28;20210;-49
2022/12/11 07:08:32;;;;;;;13.43;7.57;;;3.00;44.80;;;;;;5015100;28;20232;-49
2022/12/11 07:11:03;;;;;;;16.77;10.57;;;3.00;44.80;;;;;;5014890;28;21040;-49
2022/12/11 07:13:28;;;;;;;15.77;9.68;;;3.10;45.00;;;;;;5014763;28;20500;-49
2022/12/11 07:15:56;;;;;;;17.53;9.90;;;3.10;44.90;;;;;;5014806;28;20194;-49
2022/12/11 07:18:22;;;;;;;15.15;9.48;;;3.20;44.70;;;;;;5014903;28;20595;-49
2022/12/11 07:20:47;;;;;;;17.57;11.47;;;3.20;44.60;;;;;;5014820;28;20237;-49
2022/12/11 07:23:13;;;;;;;14.77;9.73;;;3.20;44.40;;;;;;5014643;28;20185;-49
2022/12/11 07:25:39;;;;;;;15.40;8.90;;;3.20;44.00;;;;;;5014806;28;20256;-49
2022/12/11 07:28:04;;;;;;;16.30;8.70;;;3.20;43.70;;;;;;5014703;28;20212;-49
2022/12/11 07:30:30;;;;;;;19.93;8.57;;;3.20;43.90;;;;;;5014414;28;20217;-49
2022/12/11 07:32:56;;;;;;;17.47;10.70;;;3.20;43.90;;;;;;5014443;28;20179;-49
2022/12/11 07:35:21;;;;;;;13.83;9.93;;;3.20;43.90;;;;;;5014628;28;20232;-49
2022/12/11 07:37:47;;;;;;;18.90;10.30;;;3.20;44.00;;;;;;5014568;28;20215;-49
2022/12/11 07:40:13;;;;;;;16.23;10.10;;;3.20;43.90;;;;;;5014428;28;20178;-49
2022/12/11 07:42:39;;;;;;;14.23;9.17;;;3.30;43.90;;;;;;5014241;28;20178;-49
2022/12/11 07:45:06;;;;;;;23.13;11.77;;;3.30;44.00;;;;;;5014227;28;20413;-49
2022/12/11 07:47:32;;;;;;;12.93;8.68;;;3.30;43.90;;;;;;5014383;28;20212;-49
2022/12/11 07:49:58;;;;;;;15.75;10.98;;;3.30;43.20;;;;;;5014244;28;20202;-49
2022/12/11 07:52:24;;;;;;;18.97;9.07;;;3.20;43.50;;;;;;5013944;28;20190;-49
2022/12/11 07:54:49;;;;;;;18.57;9.17;;;3.10;43.30;;;;;;5014262;28;20170;-49
2022/12/11 07:57:15;;;;;;;22.60;11.60;;;3.10;43.50;;;;;;5014157;28;20177;-49
2022/12/11 07:59:41;;;;;;;17.67;9.17;;;3.00;43.40;;;;;;5014044;28;20182;-49
2022/12/11 08:02:09;;;;;;;15.80;9.47;;;3.00;43.70;;;;;;5013734;28;20214;-49
2022/12/11 08:04:35;;;;;;;13.32;8.48;;;3.00;43.70;;;;;;5014026;28;20173;-49
2022/12/11 08:07:01;;;;;;;15.30;8.60;;;3.10;43.60;;;;;;5013952;28;20188;-49
2022/12/11 08:09:27;;;;;;;16.70;10.10;;;3.00;43.50;;;;;;5014016;28;20462;-49
2022/12/11 08:11:52;;;;;;;14.60;9.43;;;3.00;43.60;;;;;;5013592;28;20909;-49
2022/12/11 08:14:19;;;;;;;14.63;9.57;;;3.00;43.50;;;;;;5013671;28;20262;-49
2022/12/11 08:16:45;;;;;;;19.30;11.73;;;3.00;43.50;;;;;;5013852;28;20186;-49
2022/12/11 08:19:11;;;;;;;18.20;11.03;;;3.00;43.30;;;;;;4995534;28;20234;-49
2022/12/11 08:21:38;;;;;;;18.00;9.35;;;3.00;43.70;;;;;;4996040;28;20205;-49
2022/12/11 08:24:04;;;;;;;15.02;9.43;;;3.10;43.70;;;;;;5013488;28;20594;-49
2022/12/11 08:26:33;;;;;;;13.57;8.67;;;3.10;43.30;;;;;;5013885;28;20174;-48
2022/12/11 08:28:59;;;;;;;16.98;9.52;;;3.10;43.50;;;;;;5013365;28;20417;-49
2022/12/11 08:31:26;;;;;;;12.57;8.98;;;3.10;43.30;;;;;;5013239;28;20699;-49
2022/12/11 08:33:53;;;;;;;16.50;9.70;;;3.00;43.00;;;;;;5013203;28;20165;-49
2022/12/11 08:36:21;;;;;;;13.40;8.85;;;3.10;43.20;;;;;;5013399;28;20304;-49
2022/12/11 08:38:47;;;;;;;13.95;9.55;;;3.10;43.10;;;;;;5013370;28;20204;-49
2022/12/11 08:41:19;;;;;;;15.48;8.55;;;3.10;43.20;;;;;;5013202;28;20221;-49
2022/12/11 08:43:45;;;;;;;15.95;9.70;;;3.10;43.30;;;;;;5012970;28;20181;-49
2022/12/11 08:46:12;;;;;;;16.13;8.85;;;3.10;43.20;;;;;;5013217;28;20177;-49
2022/12/11 08:48:40;;;;;;;17.65;9.75;;;3.20;43.20;;;;;;5013223;28;20202;-49
2022/12/11 08:51:09;;;;;;;14.90;8.40;;;3.20;43.20;;;;;;5013047;28;20238;-49
2022/12/11 08:53:35;;;;;;;16.58;9.00;;;3.30;43.20;;;;;;5013002;28;20188;-49
2022/12/11 08:56:03;;;;;;;15.00;9.10;;;3.30;43.00;;;;;;5012996;28;20182;-49
2022/12/11 08:58:29;;;;;;;15.10;9.20;;;3.30;42.90;;;;;;5012882;28;20796;-49
2022/12/11 09:00:55;;;;;;;20.00;9.83;;;3.30;43.00;;;;;;5012656;28;20213;-49
2022/12/11 09:03:21;;;;;;;17.55;10.10;;;3.30;42.70;;;;;;5012779;28;20472;-49
2022/12/11 09:05:47;;;;;;;15.95;8.63;;;3.30;42.30;;;;;;5012944;28;20264;-49
2022/12/11 09:08:13;;;;;;;16.13;9.67;;;3.30;42.60;;;;;;5012918;28;20254;-49
2022/12/11 09:10:38;;;;;;;17.10;10.23;;;3.30;43.40;;;;;;5012631;28;20219;-49
2022/12/11 09:13:04;;;;;;;14.90;10.00;;;3.30;42.80;;;;;;5012799;28;20175;-48
2022/12/11 09:15:30;;;;;;;13.67;8.40;;;3.30;42.90;;;;;;5012997;28;20171;-49
2022/12/11 09:17:55;;;;;;;16.67;8.90;;;3.30;42.80;;;;;;5013066;28;20608;-49
2022/12/11 09:20:21;;;;;;;14.97;8.93;;;3.40;42.80;;;;;;5012850;28;20216;-49
2022/12/11 09:22:47;;;;;;;17.23;8.40;;;3.40;42.50;;;;;;5012597;28;20182;-49
2022/12/11 09:25:13;;;;;;;15.00;8.30;;;3.40;42.20;;;;;;5012822;28;20794;-49
2022/12/11 09:27:39;;;;;;;17.70;9.00;;;3.40;42.20;;;;;;5012611;28;20401;-49
2022/12/11 09:30:05;;;;;;;14.53;7.67;;;3.40;42.30;;;;;;5011709;28;20285;-48
2022/12/11 09:32:31;;;;;;;13.43;7.55;;;3.30;42.00;;;;;;5012335;28;20194;-49
2022/12/11 09:34:56;;;;;;;20.63;10.13;;;3.30;42.00;;;;;;5012592;28;20175;-49
2022/12/11 09:37:22;;;;;;;16.97;8.97;;;3.30;42.10;;;;;;5012456;28;20562;-48
2022/12/11 09:50:33;;;;;;;11.10;7.55;;;3.40;42.30;;;;;;5012569;28;20209;-50
2022/12/11 09:53:16;;;;;;;15.98;9.77;;;3.40;42.10;;;;;;5012217;28;20173;-50
2022/12/11 09:56:12;;;;;;;15.25;8.95;;;3.40;42.20;;;;;;5012288;28;20172;-50
2022/12/11 09:59:23;;;;;;;17.90;8.95;;;3.50;42.20;;;;;;4981802;28;20672;-50
2022/12/11 10:02:02;;;;;;;14.82;9.02;;;3.50;41.90;;;;;;5004080;28;20225;-50
2022/12/11 10:04:49;;;;;;;15.73;9.38;;;3.50;41.70;;;;;;5012250;28;20193;-50
2022/12/11 10:07:40;;;;;;;14.98;8.82;;;3.40;41.40;;;;;;5012378;28;20171;-50
2022/12/11 10:10:32;;;;;;;21.25;10.52;;;3.50;41.70;;;;;;5011972;28;20220;-50
2022/12/11 10:13:10;;;;;;;18.70;10.55;;;3.50;42.00;;;;;;5012144;28;20505;-50
2022/12/11 10:15:39;;;;;;;18.45;10.00;;;3.50;41.00;;;;;;5012136;28;20201;-50
2022/12/11 10:18:11;;;;;;;17.33;10.05;;;3.40;41.70;;;;;;5012241;28;20177;-50
2022/12/11 10:20:41;;;;;;;16.25;9.50;;;3.40;42.30;;;;;;5012271;28;20197;-50
2022/12/11 10:23:12;;;;;;;16.02;10.18;;;3.50;42.30;;;;;;5012095;28;20206;-50
2022/12/11 10:25:48;;;;;;;17.67;10.23;;;3.70;42.20;;;;;;5012043;28;20193;-49
2022/12/11 10:28:17;;;;;;;16.58;9.57;;;3.80;42.10;;;;;;5012026;28;20182;-50
2022/12/11 10:31:01;;;;;;;17.58;10.45;;;3.90;41.40;;;;;;5011788;28;20198;-50
2022/12/11 10:33:37;;;;;;;17.45;8.80;;;4.00;41.30;;;;;;5011602;28;20173;-50
2022/12/11 10:36:05;;;;;;;14.30;9.07;;;4.00;41.30;;;;;;5011894;28;20217;-50
2022/12/11 10:38:41;;;;;;;17.70;10.65;;;4.10;41.50;;;;;;5011794;28;20575;-49
2022/12/11 10:41:17;;;;;;;15.40;9.98;;;4.20;41.70;;;;;;5011661;28;20225;-49
2022/12/11 10:43:45;;;;;;;15.25;9.55;;;4.30;41.60;;;;;;5015341;28;20674;-50
2022/12/11 10:46:19;;;;;;;13.23;8.23;;;4.40;41.40;;;;;;5015435;28;20261;-50
2022/12/11 10:48:54;;;;;;;12.85;8.10;;;4.50;40.50;;;;;;5015421;28;20565;-50
2022/12/11 10:51:31;;;;;;;14.02;8.73;;;4.60;40.80;;;;;;5015257;28;20288;-50
2022/12/11 10:54:15;;;;;;;15.30;9.60;;;4.60;39.90;;;;;;5015124;28;20182;-50
2022/12/11 10:56:45;;;;;;;14.77;9.25;;;4.60;39.70;;;;;;5015276;28;20177;-50
2022/12/11 10:59:45;;;;;;;17.48;11.02;;;4.50;40.10;;;;;;5015190;28;20159;-50
2022/12/11 11:02:20;;;;;;;15.73;9.60;;;4.60;41.10;;;;;;5009704;28;20213;-50
2022/12/11 11:04:46;;;;;;;14.52;9.25;;;4.70;40.60;;;;;;5015088;28;20163;-50
2022/12/11 11:07:13;;;;;;;13.47;8.37;;;4.70;40.70;;;;;;5015137;28;20556;-50
2022/12/11 11:09:40;;;;;;;13.57;9.32;;;4.70;39.70;;;;;;5014973;28;20398;-50
2022/12/11 11:12:26;;;;;;;11.35;8.15;;;4.70;40.00;;;;;;5014627;28;20210;-50
2022/12/11 11:15:00;;;;;;;13.95;9.60;;;4.60;39.90;;;;;;5014980;28;20175;-50
2022/12/11 11:17:26;;;;;;;14.50;9.52;;;4.60;39.90;;;;;;5014783;28;20178;-50
2022/12/11 11:19:52;;;;;;;17.10;9.53;;;4.50;39.90;;;;;;5014813;28;20175;-50
2022/12/11 11:22:18;;;;;;;18.30;10.63;;;4.50;39.70;;;;;;5014470;28;20456;-50
2022/12/11 11:24:46;;;;;;;11.27;8.00;;;4.40;39.70;;;;;;5014743;28;20541;-50
2022/12/11 11:27:34;;;;;;;13.00;8.57;;;4.40;39.50;;;;;;5014728;28;20707;-50
2022/12/11 11:30:04;;;;;;;11.43;8.57;;;4.40;39.20;;;;;;5014533;28;20170;-49
2022/12/11 11:32:37;;;;;;;15.13;8.18;;;4.20;39.20;;;;;;5014278;28;20544;-49
2022/12/11 11:35:12;;;;;;;13.48;10.15;;;4.10;39.00;;;;;;5014606;28;20158;-50
2022/12/11 11:37:40;;;;;;;15.40;9.35;;;4.00;39.30;;;;;;5014481;28;20205;-50
2022/12/11 11:40:18;;;;;;;18.02;10.60;;;3.90;39.80;;;;;;5014391;28;20572;-50
2022/12/11 11:43:00;;;;;;;16.08;9.90;;;3.80;39.80;;;;;;5014324;28;20189;-50
2022/12/11 11:45:52;;;;;;;15.43;9.38;;;3.80;40.30;;;;;;5014398;28;20163;-50
2022/12/11 11:48:50;;;;;;;12.35;9.27;;;3.90;40.70;;;;;;5013789;28;20186;-50
2022/12/11 11:51:28;;;;;;;16.77;10.30;;;3.90;40.70;;;;;;5003973;28;20219;-50
2022/12/11 11:53:57;;;;;;;16.33;10.32;;;3.90;40.20;;;;;;5012940;28;20194;-51
2022/12/11 11:56:33;;;;;;;15.27;10.52;;;3.90;40.20;;;;;;5014272;28;20645;-50
2022/12/11 11:59:23;;;;;;;15.65;10.30;;;3.90;40.30;;;;;;5014075;28;20189;-50
2022/12/11 12:01:53;;;;;;;14.40;8.90;;;3.80;40.30;;;;;;5013736;28;20206;-50
2022/12/11 12:04:18;;;;;;;12.27;9.45;;;3.90;40.60;;;;;;5013896;28;20174;-50
2022/12/11 12:07:21;;;;;;;16.47;11.20;;;3.80;40.30;;;;;;5013943;28;20189;-50
2022/12/11 12:09:54;;;;;;;18.35;11.65;;;3.80;40.70;;;;;;5013922;28;20180;-50
2022/12/11 12:12:31;;;;;;;18.63;11.57;;;3.80;40.50;;;;;;5013629;28;20195;-50
2022/12/11 12:14:57;;;;;;;17.90;11.60;;;3.80;40.80;;;;;;5013924;28;20249;-50
2022/12/11 12:17:31;;;;;;;12.30;9.10;;;3.80;40.80;;;;;;5013791;28;20254;-50
2022/12/11 12:20:10;;;;;;;15.73;9.75;;;3.80;39.90;;;;;;5013634;28;20166;-50
2022/12/11 12:22:53;;;;;;;15.30;9.48;;;3.70;40.50;;;;;;5013485;28;20159;-50
2022/12/11 12:25:35;;;;;;;14.52;9.52;;;3.80;40.60;;;;;;5013663;28;20253;-50
2022/12/11 12:28:06;;;;;;;19.00;10.57;;;3.80;40.30;;;;;;5013524;28;20182;-50
2022/12/11 12:31:00;;;;;;;16.92;10.30;;;3.90;40.70;;;;;;5013360;28;20206;-50
2022/12/11 12:33:28;;;;;;;13.77;9.15;;;4.00;40.80;;;;;;5012633;28;20194;-50
2022/12/11 12:36:15;;;;;;;18.13;9.98;;;4.10;40.40;;;;;;5013442;28;20167;-50
2022/12/11 12:38:41;;;;;;;13.57;8.25;;;4.20;40.20;;;;;;5013299;28;20187;-50
2022/12/11 12:41:12;;;;;;;16.87;10.47;;;4.20;39.70;;;;;;5013261;28;20221;-50
2022/12/11 12:44:09;;;;;;;13.43;8.68;;;4.20;40.00;;;;;;5012887;28;20171;-50
2022/12/11 12:46:50;;;;;;;14.30;9.10;;;4.20;40.00;;;;;;5013192;28;20197;-50
2022/12/11 12:49:33;;;;;;;15.40;9.00;;;4.10;40.00;;;;;;5013259;28;20158;-50
2022/12/11 12:52:00;;;;;;;12.68;8.40;;;4.10;39.90;;;;;;5012690;28;20202;-50
2022/12/11 12:54:29;;;;;;;15.07;9.98;;;4.10;40.00;;;;;;5013101;28;20163;-50
2022/12/11 12:56:56;;;;;;;14.85;9.50;;;4.10;39.80;;;;;;5012990;28;20174;-50
2022/12/11 12:59:24;;;;;;;17.90;10.43;;;4.20;40.10;;;;;;5012949;28;20162;-50
2022/12/11 13:01:55;;;;;;;14.73;8.63;;;4.20;39.80;;;;;;5012611;28;20214;-50
2022/12/11 13:04:32;;;;;;;17.05;10.55;;;4.20;39.90;;;;;;5020554;23;20225;-51
2022/12/11 13:07:09;;;;;;;14.88;9.40;;;4.10;39.60;;;;;;5004938;28;20162;-51
2022/12/11 13:09:35;;;;;;;12.82;10.35;;;4.10;39.80;;;;;;5012999;28;20611;-51
2022/12/11 13:12:13;;;;;;;19.40;10.93;;;4.00;39.80;;;;;;5012695;28;20216;-51
2022/12/11 13:14:39;;;;;;;18.70;11.63;;;4.00;39.60;;;;;;4995705;28;20187;-51
2022/12/11 13:17:06;;;;;;;16.37;10.43;;;4.00;40.00;;;;;;4975960;28;20175;-51